createdAt,value
2023-08-08T00:00:52.450Z,16.40
2023-08-08T00:05:54.629Z,16.40
2023-08-08T00:10:56.906Z,16.30
2023-08-08T00:15:59.015Z,16.20
2023-08-08T00:21:01.149Z,16.20
2023-08-08T00:26:03.132Z,16.10
2023-08-08T00:31:05.255Z,16.00
2023-08-08T00:36:07.567Z,15.90
2023-08-08T00:41:09.974Z,15.80
2023-08-08T00:46:12.334Z,15.80
2023-08-08T00:51:14.808Z,15.80
2023-08-08T00:56:18.183Z,15.70
2023-08-08T01:01:20.507Z,15.70
2023-08-08T01:06:25.610Z,15.70
2023-08-08T01:11:29.140Z,15.60
2023-08-08T01:16:31.354Z,15.60
2023-08-08T01:21:34.101Z,15.50
2023-08-08T01:26:36.076Z,15.40
2023-08-08T01:31:38.462Z,15.30
2023-08-08T01:36:54.653Z,15.30
2023-08-08T01:41:57.267Z,15.30
2023-08-08T01:46:59.289Z,15.30
2023-08-08T01:52:01.728Z,15.20
2023-08-08T01:57:04.137Z,15.10
2023-08-08T02:02:06.260Z,15.10
2023-08-08T02:07:08.876Z,15.00
2023-08-08T02:12:10.972Z,14.90
2023-08-08T02:17:12.965Z,14.80
2023-08-08T02:22:14.961Z,14.70
2023-08-08T02:27:16.991Z,14.70
2023-08-08T02:32:18.992Z,14.60
2023-08-08T02:37:21.961Z,14.60
2023-08-08T02:42:23.998Z,14.60
2023-08-08T02:47:26.211Z,14.50
2023-08-08T02:52:28.460Z,14.50
2023-08-08T02:57:30.652Z,14.40
2023-08-08T03:02:32.807Z,14.40
2023-08-08T03:07:35.417Z,14.30
2023-08-08T03:12:39.218Z,14.30
2023-08-08T03:17:42.183Z,14.20
2023-08-08T03:22:45.809Z,14.10
2023-08-08T03:27:48.048Z,14.10
2023-08-08T03:32:51.468Z,14.00
2023-08-08T03:37:53.697Z,14.00
2023-08-08T03:42:55.960Z,14.00
2023-08-08T03:47:58.197Z,14.00
2023-08-08T03:53:00.249Z,14.00
2023-08-08T03:58:02.440Z,13.90
2023-08-08T04:03:04.631Z,13.90
2023-08-08T04:08:06.886Z,13.90
2023-08-08T04:13:08.980Z,13.80
2023-08-08T04:18:12.005Z,13.80
2023-08-08T04:23:14.289Z,13.80
2023-08-08T04:28:16.492Z,13.80
2023-08-08T04:33:18.455Z,13.80
2023-08-08T04:38:20.505Z,13.70
2023-08-08T04:43:22.536Z,13.70
2023-08-08T04:48:24.584Z,13.70
2023-08-08T04:53:26.670Z,13.60
2023-08-08T04:58:28.644Z,13.60
2023-08-08T05:03:30.650Z,13.60
2023-08-08T05:08:32.736Z,13.50
2023-08-08T05:13:34.818Z,13.50
2023-08-08T05:18:36.772Z,13.50
2023-08-08T05:23:38.817Z,13.50
2023-08-08T05:28:41.228Z,13.50
2023-08-08T05:33:43.299Z,13.50
2023-08-08T05:38:45.316Z,13.60
2023-08-08T05:43:47.395Z,13.60
2023-08-08T05:48:49.569Z,13.50
2023-08-08T05:53:51.561Z,13.60
2023-08-08T05:58:53.621Z,13.60
2023-08-08T06:03:55.738Z,13.70
2023-08-08T06:08:58.004Z,13.80
2023-08-08T06:13:59.976Z,14.00
2023-08-08T06:19:02.025Z,14.20
2023-08-08T06:24:04.167Z,14.40
2023-08-08T06:29:06.913Z,14.60
2023-08-08T06:34:08.958Z,14.80
2023-08-08T06:39:12.437Z,14.90
2023-08-08T06:44:41.873Z,15.00
2023-08-08T06:49:43.886Z,15.10
2023-08-08T06:54:45.865Z,15.10
2023-08-08T06:59:51.649Z,15.00
2023-08-08T07:04:53.665Z,15.10
2023-08-08T07:09:55.639Z,15.20
2023-08-08T07:14:57.931Z,15.30
2023-08-08T07:20:00.077Z,15.40
2023-08-08T07:25:02.241Z,15.70
2023-08-08T07:30:05.303Z,16.10
2023-08-08T07:35:09.370Z,16.40
2023-08-08T07:40:14.733Z,16.70
2023-08-08T07:45:16.899Z,16.90
2023-08-08T07:50:19.612Z,17.00
2023-08-08T07:55:21.662Z,17.10
2023-08-08T08:00:24.084Z,17.10
2023-08-08T08:05:26.251Z,17.30
2023-08-08T08:10:28.291Z,17.20
2023-08-08T08:15:30.686Z,17.20
2023-08-08T08:20:32.754Z,17.20
2023-08-08T08:25:34.802Z,17.40
2023-08-08T08:30:38.025Z,17.40
2023-08-08T08:35:40.161Z,17.50
2023-08-08T08:40:42.395Z,17.50
2023-08-08T08:45:51.061Z,17.50
2023-08-08T08:50:53.110Z,17.60
2023-08-08T08:55:57.987Z,17.70
2023-08-08T09:01:01.137Z,17.80
2023-08-08T09:06:04.120Z,17.90
2023-08-08T09:11:06.201Z,18.10
2023-08-08T09:16:09.754Z,18.40
2023-08-08T09:21:11.882Z,18.70
2023-08-08T09:26:14.781Z,18.60
2023-08-08T09:31:17.548Z,18.70
2023-08-08T09:36:20.668Z,18.70
2023-08-08T09:41:23.244Z,18.60
2023-08-08T09:46:25.270Z,18.60
2023-08-08T09:51:28.418Z,18.60
2023-08-08T09:56:30.772Z,18.70
2023-08-08T10:01:33.699Z,18.80
2023-08-08T10:06:35.714Z,19.00
2023-08-08T10:11:37.891Z,19.30
2023-08-08T10:16:40.159Z,19.30
2023-08-08T10:21:43.065Z,19.30
2023-08-08T10:26:54.500Z,19.50
2023-08-08T10:32:06.348Z,19.60
2023-08-08T10:37:13.274Z,19.90
2023-08-08T10:42:19.336Z,20.20
2023-08-08T10:47:33.160Z,20.60
2023-08-08T10:52:39.143Z,20.90
2023-08-08T10:57:41.806Z,20.80
2023-08-08T11:02:44.904Z,20.50
2023-08-08T11:07:47.170Z,20.10
2023-08-08T11:12:57.248Z,20.00
2023-08-08T11:17:59.961Z,19.90
2023-08-08T11:23:01.973Z,20.10
2023-08-08T11:28:04.213Z,20.30
2023-08-08T11:38:11.181Z,21.80
2023-08-08T11:43:14.809Z,21.80
2023-08-08T11:48:16.858Z,21.50
2023-08-08T11:53:20.049Z,21.50
2023-08-08T11:58:24.925Z,21.40
2023-08-08T12:03:27.395Z,21.30
2023-08-08T12:08:31.323Z,21.20
2023-08-08T12:13:34.140Z,21.20
2023-08-08T12:18:37.034Z,20.90
2023-08-08T12:23:39.167Z,21.10
2023-08-08T12:28:41.175Z,21.00
2023-08-08T12:33:43.122Z,20.90
2023-08-08T12:38:46.141Z,20.40
2023-08-08T12:43:48.157Z,20.30
2023-08-08T12:48:50.131Z,20.60
2023-08-08T12:53:52.250Z,20.80
2023-08-08T12:58:54.638Z,20.90
2023-08-08T13:09:07.822Z,20.70
2023-08-08T13:14:10.968Z,20.40
2023-08-08T13:19:13.020Z,20.30
2023-08-08T13:24:15.097Z,20.20
2023-08-08T13:29:17.148Z,20.20
2023-08-08T13:34:19.236Z,20.20
2023-08-08T13:39:21.211Z,20.60
2023-08-08T13:44:23.282Z,20.40
2023-08-08T13:49:27.694Z,19.90
2023-08-08T13:54:29.829Z,20.00
2023-08-08T13:59:31.893Z,20.30
2023-08-08T14:04:33.866Z,20.30
2023-08-08T14:09:35.905Z,20.20
2023-08-08T14:14:37.971Z,20.20
2023-08-08T14:19:40.085Z,20.30
2023-08-08T14:24:43.503Z,20.00
2023-08-08T14:29:45.503Z,19.90
2023-08-08T14:34:47.464Z,19.70
2023-08-08T14:39:49.539Z,20.00
2023-08-08T14:44:51.903Z,20.20
2023-08-08T14:49:54.013Z,20.00
2023-08-08T14:54:56.025Z,19.80
2023-08-08T14:59:59.430Z,19.40
2023-08-08T15:05:01.462Z,19.30
2023-08-08T15:10:03.701Z,19.20
2023-08-08T15:15:06.373Z,19.20
2023-08-08T15:20:08.833Z,19.10
2023-08-08T15:25:10.919Z,19.30
2023-08-08T15:30:13.001Z,19.40
2023-08-08T15:35:14.977Z,19.50
2023-08-08T15:40:16.965Z,20.70
2023-08-08T15:45:19.003Z,20.60
2023-08-08T15:50:21.231Z,20.30
2023-08-08T15:55:23.208Z,20.20
2023-08-08T16:00:25.277Z,20.30
2023-08-08T16:05:29.200Z,20.60
2023-08-08T16:10:31.300Z,20.40
2023-08-08T16:15:33.287Z,20.10
2023-08-08T16:20:35.443Z,19.80
2023-08-08T16:25:37.516Z,19.90
2023-08-08T16:30:39.826Z,20.00
2023-08-08T16:35:41.877Z,20.10
2023-08-08T16:40:43.945Z,20.60
2023-08-08T16:45:45.979Z,20.30
2023-08-08T16:50:48.841Z,20.00
2023-08-08T16:55:50.964Z,20.50
2023-08-08T17:00:55.190Z,21.30
2023-08-08T17:05:57.316Z,20.80
2023-08-08T17:10:59.370Z,20.30
2023-08-08T17:16:01.406Z,20.10
2023-08-08T17:21:03.697Z,19.90
2023-08-08T17:26:06.329Z,19.90
2023-08-08T17:31:08.520Z,19.90
2023-08-08T17:36:10.616Z,19.80
2023-08-08T17:41:13.055Z,19.70
2023-08-08T17:46:15.095Z,19.70
2023-08-08T17:51:17.180Z,19.60
2023-08-08T17:56:19.156Z,19.60
2023-08-08T18:01:21.187Z,19.40
2023-08-08T18:06:23.287Z,19.30
2023-08-08T18:11:25.279Z,19.40
2023-08-08T18:16:27.300Z,19.40
2023-08-08T18:21:30.383Z,19.40
2023-08-08T18:26:32.539Z,19.30
2023-08-08T18:31:34.673Z,19.30
2023-08-08T18:36:36.828Z,19.20
2023-08-08T18:41:38.864Z,19.20
2023-08-08T18:46:43.060Z,19.20
2023-08-08T18:51:45.665Z,19.10
2023-08-08T18:56:47.746Z,19.10
2023-08-08T19:01:49.870Z,19.00
2023-08-08T19:06:51.994Z,19.00
2023-08-08T19:11:54.057Z,18.90
2023-08-08T19:16:56.168Z,18.80
2023-08-08T19:21:58.424Z,18.70
2023-08-08T19:27:00.549Z,18.60
2023-08-08T19:32:02.833Z,18.50
2023-08-08T19:37:05.212Z,18.40
2023-08-08T19:42:07.220Z,18.40
2023-08-08T19:47:09.232Z,18.30
2023-08-08T19:52:11.239Z,18.30
2023-08-08T19:57:13.581Z,18.30
2023-08-08T20:02:15.678Z,18.20
2023-08-08T20:07:17.842Z,18.20
2023-08-08T20:12:20.024Z,18.10
2023-08-08T20:17:22.503Z,18.10
2023-08-08T20:22:24.706Z,18.10
2023-08-08T20:27:26.919Z,18.00
2023-08-08T20:32:29.071Z,18.00
2023-08-08T20:37:31.096Z,17.90
2023-08-08T20:42:33.072Z,17.80
2023-08-08T20:47:35.189Z,17.80
2023-08-08T20:52:37.864Z,17.70
2023-08-08T20:57:40.010Z,17.60
2023-08-08T21:02:42.136Z,17.50
2023-08-08T21:07:44.135Z,17.50
2023-08-08T21:12:46.116Z,17.60
2023-08-08T21:17:48.256Z,17.60
2023-08-08T21:22:50.524Z,17.60
2023-08-08T21:27:52.597Z,17.50
2023-08-08T21:32:54.727Z,17.40
2023-08-08T21:37:56.772Z,17.50
2023-08-08T21:42:58.723Z,17.40
2023-08-08T21:48:00.783Z,17.30
2023-08-08T21:53:02.879Z,17.20
2023-08-08T21:58:04.924Z,17.10
2023-08-08T22:03:07.022Z,17.10
2023-08-08T22:08:10.227Z,17.00
2023-08-08T22:13:12.276Z,17.00
2023-08-08T22:18:15.563Z,17.00
2023-08-08T22:23:20.225Z,17.00
2023-08-08T22:28:23.175Z,17.00
2023-08-08T22:33:25.489Z,17.00
2023-08-08T22:38:27.684Z,16.90
2023-08-08T22:43:29.652Z,16.90
2023-08-08T22:48:31.655Z,16.80
2023-08-08T22:53:33.703Z,16.80
2023-08-08T22:58:36.180Z,16.80
2023-08-08T23:03:39.122Z,16.80
2023-08-08T23:08:41.348Z,16.80
2023-08-08T23:13:43.317Z,16.80
2023-08-08T23:18:45.293Z,16.70
2023-08-08T23:23:47.786Z,16.70
2023-08-08T23:28:49.865Z,16.60
2023-08-08T23:33:51.900Z,16.60
2023-08-08T23:38:54.779Z,16.70
2023-08-08T23:43:56.829Z,16.70
2023-08-08T23:48:58.826Z,16.70
2023-08-08T23:54:01.324Z,16.70
2023-08-08T23:59:03.320Z,16.60
